createdAt,value
2018-08-18T00:00:54.115Z,20.71
2018-08-18T00:03:24.770Z,20.65
2018-08-18T00:05:55.486Z,20.57
2018-08-18T00:08:26.000Z,20.07
2018-08-18T00:10:56.334Z,20.11
2018-08-18T00:13:26.598Z,20.33
2018-08-18T00:15:56.966Z,20.35
2018-08-18T00:18:27.347Z,20.30
2018-08-18T00:20:57.663Z,20.21
2018-08-18T00:23:28.336Z,20.27
2018-08-18T00:25:58.798Z,20.32
2018-08-18T00:28:29.167Z,20.46
2018-08-18T00:30:59.588Z,20.27
2018-08-18T00:33:30.329Z,20.16
2018-08-18T00:36:00.614Z,20.34
2018-08-18T00:38:30.981Z,20.63
2018-08-18T00:41:01.701Z,20.04
2018-08-18T00:43:32.400Z,20.12
2018-08-18T00:46:02.961Z,19.98
2018-08-18T00:48:33.456Z,19.87
2018-08-18T00:51:03.944Z,20.12
2018-08-18T00:53:34.351Z,19.85
2018-08-18T00:56:06.257Z,20.12
2018-08-18T00:58:36.463Z,19.89
2018-08-18T01:01:07.026Z,19.97
2018-08-18T01:03:43.242Z,19.84
2018-08-18T01:06:19.387Z,19.94
2018-08-18T01:08:53.963Z,19.76
2018-08-18T01:11:25.398Z,20.04
2018-08-18T01:13:56.580Z,20.14
2018-08-18T01:16:27.117Z,20.30
2018-08-18T01:18:57.703Z,20.03
2018-08-18T01:21:28.076Z,20.31
2018-08-18T01:23:58.519Z,20.21
2018-08-18T01:26:28.904Z,19.95
2018-08-18T01:29:08.742Z,19.88
2018-08-18T01:31:39.029Z,19.82
2018-08-18T01:34:09.705Z,19.85
2018-08-18T01:36:40.162Z,19.68
2018-08-18T01:39:12.394Z,19.71
2018-08-18T01:41:42.786Z,19.85
2018-08-18T01:44:15.181Z,19.93
2018-08-18T01:46:47.610Z,19.76
2018-08-18T01:49:32.113Z,19.71
2018-08-18T01:52:05.951Z,19.80
2018-08-18T01:54:36.197Z,19.85
2018-08-18T01:57:09.719Z,20.11
2018-08-18T01:59:41.262Z,19.97
2018-08-18T02:02:16.069Z,20.31
2018-08-18T02:04:46.873Z,20.44
2018-08-18T02:07:29.235Z,20.31
2018-08-18T02:09:59.671Z,20.35
2018-08-18T02:12:30.735Z,20.26
2018-08-18T02:15:01.844Z,20.35
2018-08-18T02:17:39.659Z,20.07
2018-08-18T02:20:10.723Z,20.30
2018-08-18T02:22:41.046Z,20.20
2018-08-18T02:25:11.489Z,20.10
2018-08-18T02:27:42.223Z,19.66
2018-08-18T02:30:21.575Z,19.65
2018-08-18T02:32:52.169Z,19.80
2018-08-18T02:35:23.813Z,19.82
2018-08-18T02:37:54.438Z,19.40
2018-08-18T02:40:26.287Z,19.33
2018-08-18T02:42:56.734Z,19.67
2018-08-18T02:45:27.340Z,19.51
2018-08-18T02:48:11.774Z,19.26
2018-08-18T02:50:53.995Z,19.25
2018-08-18T02:53:27.733Z,19.19
2018-08-18T02:55:58.092Z,19.20
2018-08-18T02:58:28.502Z,19.36
2018-08-18T03:00:59.049Z,19.15
2018-08-18T03:03:29.438Z,18.86
2018-08-18T03:06:07.590Z,19.14
2018-08-18T03:08:38.026Z,18.89
2018-08-18T03:11:08.541Z,19.16
2018-08-18T03:13:38.887Z,19.06
2018-08-18T03:16:11.185Z,18.86
2018-08-18T03:18:49.357Z,19.05
2018-08-18T03:21:21.206Z,18.87
2018-08-18T03:24:02.467Z,18.78
2018-08-18T03:26:37.874Z,18.88
2018-08-18T03:29:08.436Z,18.82
2018-08-18T03:31:39.382Z,18.78
2018-08-18T03:34:10.666Z,18.77
2018-08-18T03:36:45.926Z,18.84
2018-08-18T03:39:23.743Z,18.70
2018-08-18T03:41:55.522Z,18.56
2018-08-18T03:44:25.803Z,18.64
2018-08-18T03:46:56.361Z,18.58
2018-08-18T03:49:26.719Z,18.54
2018-08-18T03:51:57.171Z,18.59
2018-08-18T03:54:27.478Z,18.53
2018-08-18T03:56:58.128Z,18.53
2018-08-18T03:59:28.513Z,18.63
2018-08-18T04:02:00.729Z,18.53
2018-08-18T04:04:32.683Z,18.31
2018-08-18T04:07:03.768Z,18.41
2018-08-18T04:09:35.704Z,18.57
2018-08-18T04:12:08.134Z,18.60
2018-08-18T04:14:40.532Z,18.48
2018-08-18T04:17:21.566Z,18.34
2018-08-18T04:19:52.043Z,18.63
2018-08-18T04:22:24.345Z,18.58
2018-08-18T04:24:56.401Z,18.35
2018-08-18T04:27:43.541Z,18.43
2018-08-18T04:30:20.601Z,18.80
2018-08-18T04:33:00.574Z,18.70
2018-08-18T04:35:32.231Z,18.68
2018-08-18T04:38:04.706Z,18.88
2018-08-18T04:40:37.308Z,18.78
2018-08-18T04:43:08.434Z,18.74
2018-08-18T04:45:39.062Z,18.82
2018-08-18T04:48:09.902Z,18.73
2018-08-18T04:50:40.285Z,18.89
2018-08-18T04:53:12.115Z,18.60
2018-08-18T04:55:42.549Z,18.70
2018-08-18T04:58:13.897Z,19.12
2018-08-18T05:00:44.194Z,18.88
2018-08-18T05:03:15.436Z,19.04
2018-08-18T05:05:46.464Z,19.16
2018-08-18T05:08:16.853Z,19.09
2018-08-18T05:10:47.262Z,18.72
2018-08-18T05:13:17.582Z,18.81
2018-08-18T05:15:48.245Z,18.94
2018-08-18T05:18:18.590Z,18.94
2018-08-18T05:20:50.649Z,19.25
2018-08-18T05:23:24.936Z,18.92
2018-08-18T05:25:55.209Z,18.79
2018-08-18T05:28:25.550Z,18.85
2018-08-18T05:30:56.142Z,18.81
2018-08-18T05:33:26.660Z,18.93
2018-08-18T05:35:57.181Z,18.89
2018-08-18T05:38:27.462Z,18.71
2018-08-18T05:40:57.927Z,19.00
2018-08-18T05:43:28.325Z,18.97
2018-08-18T05:45:58.836Z,18.67
2018-08-18T05:48:29.334Z,18.70
2018-08-18T05:50:59.958Z,18.70
2018-08-18T05:53:31.458Z,18.59
2018-08-18T05:56:02.561Z,18.52
2018-08-18T05:58:48.763Z,18.39
2018-08-18T06:01:26.290Z,18.40
2018-08-18T06:04:04.592Z,18.63
2018-08-18T06:06:35.107Z,18.84
2018-08-18T06:09:07.230Z,19.15
2018-08-18T06:11:37.790Z,19.18
2018-08-18T06:14:08.386Z,19.43
2018-08-18T06:16:38.812Z,19.32
2018-08-18T06:19:09.664Z,19.69
2018-08-18T06:21:40.380Z,19.63
2018-08-18T06:24:11.076Z,19.61
2018-08-18T06:26:41.380Z,19.78
2018-08-18T06:29:11.677Z,19.89
2018-08-18T06:31:57.643Z,19.77
2018-08-18T06:34:30.314Z,19.62
2018-08-18T06:37:01.062Z,19.48
2018-08-18T06:39:46.024Z,19.47
2018-08-18T06:42:42.761Z,19.38
2018-08-18T06:45:16.332Z,19.37
2018-08-18T06:47:47.919Z,19.23
2018-08-18T06:50:19.252Z,19.22
2018-08-18T06:53:01.209Z,19.18
2018-08-18T06:55:32.776Z,19.14
2018-08-18T06:58:03.782Z,18.98
2018-08-18T07:00:34.076Z,19.24
2018-08-18T07:03:09.972Z,19.48
2018-08-18T07:05:40.247Z,19.64
2018-08-18T07:08:11.918Z,19.61
2018-08-18T07:10:42.212Z,19.61
2018-08-18T07:13:12.859Z,19.40
2018-08-18T07:15:44.512Z,19.54
2018-08-18T07:18:16.092Z,19.41
2018-08-18T07:20:46.220Z,19.34
2018-08-18T07:23:16.720Z,19.61
2018-08-18T07:25:52.010Z,19.56
2018-08-18T07:28:24.637Z,19.64
2018-08-18T07:30:55.385Z,19.63
2018-08-18T07:33:25.813Z,19.96
2018-08-18T07:35:57.059Z,19.77
2018-08-18T07:38:27.897Z,19.76
2018-08-18T07:40:58.484Z,19.69
2018-08-18T07:43:33.480Z,19.41
2018-08-18T07:46:08.315Z,19.48
2018-08-18T07:48:40.019Z,19.44
2018-08-18T07:51:10.176Z,19.73
2018-08-18T07:53:41.483Z,19.25
2018-08-18T07:56:12.432Z,19.69
2018-08-18T07:58:42.790Z,20.02
2018-08-18T08:01:14.790Z,20.03
2018-08-18T08:03:45.307Z,20.13
2018-08-18T08:06:18.516Z,20.06
2018-08-18T08:08:48.988Z,19.94
2018-08-18T08:11:19.384Z,20.01
2018-08-18T08:13:49.780Z,19.95
2018-08-18T08:16:22.063Z,20.05
2018-08-18T08:18:52.516Z,20.26
2018-08-18T08:21:23.325Z,20.15
2018-08-18T08:23:54.657Z,19.85
2018-08-18T08:26:25.890Z,20.11
2018-08-18T08:28:56.192Z,20.37
2018-08-18T08:31:26.552Z,20.71
2018-08-18T08:34:00.289Z,20.79
2018-08-18T08:36:34.689Z,20.82
2018-08-18T08:39:06.361Z,21.08
2018-08-18T08:41:36.659Z,21.09
2018-08-18T08:44:06.969Z,21.20
2018-08-18T08:46:49.780Z,21.60
2018-08-18T08:49:27.465Z,21.88
2018-08-18T08:52:08.314Z,21.61
2018-08-18T08:54:48.379Z,21.60
2018-08-18T08:57:25.988Z,22.15
2018-08-18T09:00:03.556Z,21.97
2018-08-18T09:02:48.625Z,21.85
2018-08-18T09:05:33.228Z,22.37
2018-08-18T09:08:13.451Z,22.91
2018-08-18T09:10:50.940Z,22.68
2018-08-18T09:13:37.196Z,22.58
2018-08-18T09:16:15.989Z,22.88
2018-08-18T09:18:53.025Z,22.77
2018-08-18T09:21:23.504Z,22.83
2018-08-18T09:23:58.995Z,22.86
2018-08-18T09:26:31.769Z,23.05
2018-08-18T09:29:03.651Z,23.28
2018-08-18T09:31:34.803Z,23.45
2018-08-18T09:34:05.173Z,23.49
2018-08-18T09:36:35.593Z,23.38
2018-08-18T09:39:08.884Z,23.21
2018-08-18T09:41:39.657Z,22.96
2018-08-18T09:44:21.382Z,23.19
2018-08-18T09:46:52.233Z,23.49
2018-08-18T09:49:22.604Z,23.41
2018-08-18T09:51:53.160Z,23.87
2018-08-18T09:54:23.533Z,24.16
2018-08-18T09:56:55.994Z,23.99
2018-08-18T09:59:26.871Z,23.80
2018-08-18T10:01:57.678Z,23.57
2018-08-18T10:04:28.106Z,23.73
2018-08-18T10:06:58.474Z,23.73
2018-08-18T10:09:29.580Z,23.60
2018-08-18T10:12:00.137Z,23.97
2018-08-18T10:14:31.647Z,24.37
2018-08-18T10:17:02.954Z,24.25
2018-08-18T10:19:33.883Z,24.74
2018-08-18T10:22:07.137Z,24.85
2018-08-18T10:24:38.029Z,24.54
2018-08-18T10:27:08.510Z,24.43
2018-08-18T10:29:39.129Z,24.84
2018-08-18T10:32:09.273Z,24.88
2018-08-18T10:34:39.656Z,24.71
2018-08-18T10:37:09.920Z,24.48
2018-08-18T10:39:40.156Z,24.44
2018-08-18T10:42:13.852Z,24.64
2018-08-18T10:44:50.525Z,24.76
2018-08-18T10:47:22.791Z,24.88
2018-08-18T10:50:04.149Z,24.99
2018-08-18T10:52:45.975Z,25.15
2018-08-18T10:55:18.636Z,24.88
2018-08-18T10:58:00.841Z,24.76
2018-08-18T11:00:32.861Z,23.36
2018-08-18T11:03:07.236Z,23.71
2018-08-18T11:05:38.716Z,23.88
2018-08-18T11:08:11.846Z,24.42
2018-08-18T11:10:43.117Z,24.26
2018-08-18T11:13:13.406Z,24.19
2018-08-18T11:15:44.864Z,24.25
2018-08-18T11:18:15.224Z,24.35
2018-08-18T11:20:45.533Z,24.15
2018-08-18T11:23:16.421Z,23.60
2018-08-18T11:25:56.970Z,23.55
2018-08-18T11:28:27.797Z,24.00
2018-08-18T11:30:58.037Z,24.24
2018-08-18T11:33:38.455Z,24.40
2018-08-18T11:36:10.044Z,24.18
2018-08-18T11:38:40.748Z,24.07
2018-08-18T11:41:11.029Z,23.51
2018-08-18T11:43:47.752Z,24.05
2018-08-18T11:46:17.956Z,24.25
2018-08-18T11:48:48.659Z,24.33
2018-08-18T11:51:18.831Z,23.91
2018-08-18T11:53:58.918Z,24.19
2018-08-18T11:56:29.275Z,24.42
2018-08-18T11:59:14.828Z,24.49
2018-08-18T12:01:49.251Z,24.28
2018-08-18T12:04:20.843Z,24.08
2018-08-18T12:06:56.214Z,24.17
2018-08-18T12:09:26.712Z,24.49
2018-08-18T12:11:57.037Z,24.34
2018-08-18T12:14:27.464Z,24.43
2018-08-18T12:16:58.403Z,24.40
2018-08-18T12:19:28.544Z,24.07
2018-08-18T12:21:58.853Z,24.03
2018-08-18T12:24:29.438Z,23.97
2018-08-18T12:27:07.486Z,24.33
2018-08-18T12:29:38.257Z,23.84
2018-08-18T12:32:14.985Z,23.95
2018-08-18T12:34:45.490Z,24.02
2018-08-18T12:37:16.749Z,24.18
2018-08-18T12:39:47.013Z,24.46
2018-08-18T12:42:24.120Z,24.45
2018-08-18T12:48:02.704Z,24.63
2018-08-18T12:50:36.437Z,24.79
2018-08-18T12:53:07.103Z,24.82
2018-08-18T12:55:38.688Z,24.70
2018-08-18T12:58:10.802Z,24.86
2018-08-18T13:00:41.052Z,24.87
2018-08-18T13:03:13.893Z,25.07
2018-08-18T13:05:49.460Z,25.08
2018-08-18T13:08:22.004Z,24.73
2018-08-18T13:10:53.097Z,24.76
2018-08-18T13:13:23.837Z,24.59
2018-08-18T13:15:56.035Z,25.09
2018-08-18T13:18:31.308Z,25.29
2018-08-18T13:21:06.627Z,25.29
2018-08-18T13:23:37.902Z,25.20
2018-08-18T13:26:09.033Z,25.39
2018-08-18T13:28:41.423Z,25.68
